KESN/ESN METAR and TAF weather

Enter ICAO airport designator
Station Type Date Time Source
KESN METAR 2021/09/27 07:55 UTC NOAA

KESN 270755Z AUTO 00000KT 10SM CLR 15/14 A3008 RMK AO2 T01450140


Station Type Date Time Source
KESN Decoded METAR 2021/09/27 07:55 UTC NOAA

Easton / Newman Field, MD, United States (KESN) 38-48N 076-04W
Sep 27, 2021 - 03:55 AM EDT / 2021.09.27 0755 UTC
Wind: Calm:0
Visibility: 10 mile(s):0
Sky conditions: clear
Temperature: 58.1 F (14.5 C)
Dew Point: 57.2 F (14.0 C)
Relative Humidity: 96%
Pressure (altimeter): 30.08 in. Hg (1018 hPa)
ob: KESN 270755Z AUTO 00000KT 10SM CLR 15/14 A3008 RMK AO2 T01450140
cycle: 8

Station Type Date Time Source
KESN TAF UTC NOAA

Error!

Example: see airport list